TISX/STX METAR and TAF weather

Enter ICAO airport designator
Station Type Date Time Source
TISX METAR 2020/07/02 21:53 UTC NOAA

TISX 022153Z 10014KT 10SM CLR 31/24 A2996 RMK AO2 SLP142 T03060239


Station Type Date Time Source
TISX Decoded METAR 2020/07/02 21:53 UTC NOAA

Christiansted, Henry E. Rohlsen Airport, Virgin Islands (TISX) 17-42N 064-48W 17M
Jul 02, 2020 - 05:53 PM EDT / 2020.07.02 2153 UTC
Wind: from the E (100 degrees) at 16 MPH (14 KT):0
Visibility: 10 mile(s):0
Sky conditions: clear
Temperature: 87.1 F (30.6 C)
Heat index: 96.4 F (35.8 C):1
Dew Point: 75.0 F (23.9 C)
Relative Humidity: 67%
Pressure (altimeter): 29.96 in. Hg (1014 hPa)
ob: TISX 022153Z 10014KT 10SM CLR 31/24 A2996 RMK AO2 SLP142 T03060239
cycle: 22

Station Type Date Time Source
TISX TAF 2020/07/02 18:39 UTC NOAA

TAF TISX 021730Z 0218/0318 12014KT P6SM FEW030 SCT040
FM022200 08010KT P6SM FEW030 SCT045
FM031400 12014KT P6SM FEW030 FEW045

Example: see airport list